Pagina principale
METAR-TAF:

METAR-TAF

Aeroporti :

Kahmishli, Siria

latitudine: 37-03N, longitudine: 041-13E, altezza: 455 m

Osservazione

Il bollettino è stato emesso 8 ore e 6 minuti fa, alle 21:00 UTC
Vento 6 kt da est/sud-est
Temperature 10°C
Umidità 100%
Pressione 1008 hPa
Visibilità 10 km o più
Nubi sparse ad un'altezza di 2600 ft
Nuvoloso ad un'altezza di 10000 ft

METAR: OSKL 292100Z 12006KT 9999 SCT026 BKN100 10/10 Q1008

Ora: 08:06 (05:06 UTC)


TAF: mancante

Osservazioni e previsioni meteorologiche di più di 4000 aeroporti (messaggi METAR e TAF).

Le stazioni disponibili sono rappresentate dai dischi gialli e rossi sulla carta.

Puntare il mouse per vedere il nome della stazione.

Clicca sopra per visualizzare le osservazioni e previsioni meteorologiche.

Per cambiare la mappa : fare clic sui pulsanti verdi con una croce nera per ingrandire, il pulsante verde con un trattino per diminuire, o sulla freccia verde per le mappe adiacenti.


METAR-TAF: